createdAt,value
2018-08-17T00:00:34.895Z,99.90
2018-08-17T00:03:03.477Z,99.90
2018-08-17T00:05:32.165Z,99.90
2018-08-17T00:08:01.192Z,99.90
2018-08-17T00:10:32.592Z,99.90
2018-08-17T00:13:08.472Z,99.90
2018-08-17T00:15:36.484Z,99.90
2018-08-17T00:18:05.608Z,99.90
2018-08-17T00:20:33.653Z,99.90
2018-08-17T00:23:02.514Z,99.90
2018-08-17T00:25:30.588Z,99.90
2018-08-17T00:28:00.093Z,99.90
2018-08-17T00:30:28.842Z,99.90
2018-08-17T00:32:56.964Z,99.90
2018-08-17T00:35:24.990Z,99.90
2018-08-17T00:37:53.297Z,99.90
2018-08-17T00:40:21.307Z,99.90
2018-08-17T00:42:49.361Z,99.90
2018-08-17T00:45:17.432Z,99.90
2018-08-17T00:47:46.312Z,99.90
2018-08-17T00:50:16.093Z,99.90
2018-08-17T00:52:44.759Z,99.90
2018-08-17T00:55:13.432Z,99.90
2018-08-17T00:57:41.559Z,99.90
2018-08-17T01:00:12.096Z,99.90
2018-08-17T01:02:40.880Z,99.90
2018-08-17T01:05:10.018Z,99.90
2018-08-17T01:07:38.922Z,99.90
2018-08-17T01:10:07.678Z,99.90
2018-08-17T01:12:35.711Z,99.90
2018-08-17T01:15:04.222Z,99.90
2018-08-17T01:17:32.261Z,99.90
2018-08-17T01:20:00.420Z,99.90
2018-08-17T01:22:28.714Z,99.90
2018-08-17T01:24:56.764Z,99.90
2018-08-17T01:27:24.721Z,99.90
2018-08-17T01:29:54.134Z,99.90
2018-08-17T01:32:23.730Z,99.90
2018-08-17T01:34:51.952Z,99.90
2018-08-17T01:37:22.064Z,99.90
2018-08-17T01:39:50.120Z,99.90
2018-08-17T01:42:18.743Z,99.90
2018-08-17T01:44:46.718Z,99.90
2018-08-17T01:47:14.948Z,99.90
2018-08-17T01:49:43.178Z,99.90
2018-08-17T01:52:11.192Z,99.90
2018-08-17T01:54:40.370Z,99.90
2018-08-17T01:57:09.315Z,99.90
2018-08-17T01:59:38.658Z,99.90
2018-08-17T02:02:06.758Z,99.90
2018-08-17T02:04:34.826Z,99.90
2018-08-17T02:07:03.093Z,99.90
2018-08-17T02:09:31.110Z,99.90
2018-08-17T02:11:59.168Z,99.90
2018-08-17T02:14:28.869Z,99.90
2018-08-17T02:16:56.904Z,99.90
2018-08-17T02:19:25.165Z,99.90
2018-08-17T02:21:53.168Z,99.90
2018-08-17T02:24:22.539Z,99.90
2018-08-17T02:26:50.504Z,99.90
2018-08-17T02:29:18.463Z,99.90
2018-08-17T02:31:46.491Z,99.90
2018-08-17T02:34:14.443Z,99.90
2018-08-17T02:36:42.432Z,99.90
2018-08-17T02:39:10.566Z,99.90
2018-08-17T02:41:38.540Z,99.90
2018-08-17T02:44:06.726Z,99.90
2018-08-17T02:46:34.675Z,99.90
2018-08-17T02:49:03.305Z,99.90
2018-08-17T02:51:31.387Z,99.90
2018-08-17T02:53:59.392Z,99.90
2018-08-17T02:56:27.440Z,99.90
2018-08-17T02:58:55.562Z,99.90
2018-08-17T03:01:23.601Z,99.90
2018-08-17T03:03:51.598Z,99.90
2018-08-17T03:06:19.701Z,99.90
2018-08-17T03:08:47.901Z,99.90
2018-08-17T03:11:16.112Z,99.90
2018-08-17T03:13:44.180Z,99.90
2018-08-17T03:16:13.500Z,99.90
2018-08-17T03:18:41.965Z,99.90
2018-08-17T03:21:10.351Z,99.90
2018-08-17T03:23:39.249Z,99.90
2018-08-17T03:26:08.163Z,99.90
2018-08-17T03:28:36.288Z,99.90
2018-08-17T03:31:04.761Z,99.90
2018-08-17T03:33:32.773Z,99.90
2018-08-17T03:36:00.740Z,99.90
2018-08-17T03:38:28.854Z,99.90
2018-08-17T03:40:57.366Z,99.90
2018-08-17T03:43:25.394Z,99.90
2018-08-17T03:45:53.634Z,99.90
2018-08-17T03:48:21.786Z,99.90
2018-08-17T03:50:49.761Z,99.90
2018-08-17T03:53:18.043Z,99.90
2018-08-17T03:55:46.415Z,99.90
2018-08-17T03:58:14.424Z,99.90
2018-08-17T04:00:43.505Z,99.90
2018-08-17T04:03:11.580Z,99.90
2018-08-17T04:05:39.658Z,99.90
2018-08-17T04:08:08.194Z,99.90
2018-08-17T04:10:36.202Z,99.90
2018-08-17T04:13:04.232Z,99.90
2018-08-17T04:15:34.358Z,99.90
2018-08-17T04:18:04.458Z,99.90
2018-08-17T04:20:32.536Z,99.90
2018-08-17T04:23:01.556Z,99.90
2018-08-17T04:25:30.175Z,99.90
2018-08-17T04:27:58.190Z,99.90
2018-08-17T04:30:26.988Z,99.90
2018-08-17T04:32:54.980Z,99.90
2018-08-17T04:35:23.045Z,99.90
2018-08-17T04:37:51.146Z,99.90
2018-08-17T04:40:19.129Z,99.90
2018-08-17T04:42:47.144Z,99.90
2018-08-17T04:45:16.021Z,99.90
2018-08-17T04:47:44.108Z,99.90
2018-08-17T04:50:12.780Z,99.90
2018-08-17T04:52:41.824Z,99.90
2018-08-17T04:55:10.867Z,99.90
2018-08-17T04:57:38.915Z,99.90
2018-08-17T05:00:08.984Z,99.90
2018-08-17T05:02:37.504Z,99.90
2018-08-17T05:05:06.149Z,99.90
2018-08-17T05:07:34.209Z,99.90
2018-08-17T05:10:02.264Z,99.90
2018-08-17T05:12:31.048Z,99.90
2018-08-17T05:15:00.109Z,99.90
2018-08-17T05:17:28.120Z,99.90
2018-08-17T05:19:56.212Z,99.90
2018-08-17T05:22:24.314Z,99.90
2018-08-17T05:24:52.364Z,99.90
2018-08-17T05:27:20.467Z,99.90
2018-08-17T05:29:48.616Z,99.90
2018-08-17T05:32:16.634Z,99.90
2018-08-17T05:34:44.718Z,99.90
2018-08-17T05:37:12.783Z,99.90
2018-08-17T05:39:44.555Z,99.90
2018-08-17T05:42:12.676Z,99.90
2018-08-17T05:44:41.285Z,99.90
2018-08-17T05:47:10.937Z,99.90
2018-08-17T05:49:40.472Z,99.90
2018-08-17T05:52:09.078Z,99.90
2018-08-17T05:54:37.207Z,99.90
2018-08-17T05:57:05.449Z,99.90
2018-08-17T05:59:33.544Z,99.90
2018-08-17T06:02:01.604Z,99.90
2018-08-17T06:04:29.696Z,99.90
2018-08-17T06:06:57.762Z,99.90
2018-08-17T06:09:25.833Z,99.90
2018-08-17T06:11:54.675Z,99.90
2018-08-17T06:14:24.551Z,99.90
2018-08-17T06:16:52.609Z,99.90
2018-08-17T06:19:22.434Z,99.90
2018-08-17T06:21:51.134Z,99.90
2018-08-17T06:24:19.306Z,99.90
2018-08-17T06:26:48.718Z,99.90
2018-08-17T06:29:16.848Z,99.90
2018-08-17T06:31:46.240Z,99.90
2018-08-17T06:34:14.225Z,99.90
2018-08-17T06:36:42.258Z,99.90
2018-08-17T06:39:12.031Z,99.90
2018-08-17T06:41:42.298Z,99.90
2018-08-17T06:44:11.662Z,99.90
2018-08-17T06:46:41.852Z,99.90
2018-08-17T06:49:09.870Z,99.90
2018-08-17T06:51:37.913Z,99.90
2018-08-17T06:54:06.154Z,99.90
2018-08-17T06:56:35.181Z,99.90
2018-08-17T06:59:03.390Z,99.90
2018-08-17T07:01:33.112Z,99.90
2018-08-17T07:04:02.981Z,99.90
2018-08-17T07:06:32.302Z,99.90
2018-08-17T07:09:00.594Z,99.90
2018-08-17T07:11:29.187Z,99.90
2018-08-17T07:13:57.196Z,99.90
2018-08-17T07:16:25.249Z,99.90
2018-08-17T07:18:58.322Z,99.90
2018-08-17T07:21:26.333Z,99.90
2018-08-17T07:23:54.503Z,99.90
2018-08-17T07:26:22.527Z,99.90
2018-08-17T07:28:52.170Z,99.90
2018-08-17T07:31:20.744Z,99.90
2018-08-17T07:33:49.597Z,99.90
2018-08-17T07:36:18.234Z,99.90
2018-08-17T07:38:47.032Z,99.90
2018-08-17T07:41:16.196Z,99.60
2018-08-17T07:43:45.941Z,97.80
2018-08-17T07:46:15.928Z,97.10
2018-08-17T07:48:45.836Z,97.10
2018-08-17T07:51:16.246Z,96.40
2018-08-17T07:53:44.308Z,97.10
2018-08-17T07:56:14.316Z,97.00
2018-08-17T07:58:44.328Z,97.80
2018-08-17T08:01:12.951Z,99.20
2018-08-17T08:03:42.253Z,99.90
2018-08-17T08:06:12.572Z,99.90
2018-08-17T08:08:41.449Z,99.90
2018-08-17T08:11:10.403Z,99.90
2018-08-17T08:13:40.394Z,99.90
2018-08-17T08:16:08.593Z,99.90
2018-08-17T08:18:38.192Z,99.90
2018-08-17T08:21:07.768Z,99.70
2018-08-17T08:23:37.598Z,99.90
2018-08-17T08:26:07.684Z,99.60
2018-08-17T08:28:35.747Z,97.50
2018-08-17T08:31:04.530Z,95.90
2018-08-17T08:33:33.300Z,94.80
2018-08-17T08:36:01.392Z,92.80
2018-08-17T08:38:30.307Z,91.90
2018-08-17T08:41:00.196Z,90.70
2018-08-17T08:43:28.351Z,91.30
2018-08-17T08:45:57.082Z,92.40
2018-08-17T08:48:25.681Z,95.20
2018-08-17T08:50:55.742Z,95.70
2018-08-17T08:53:25.521Z,96.00
2018-08-17T08:55:55.042Z,95.90
2018-08-17T08:58:23.136Z,94.80
2018-08-17T09:00:52.087Z,95.60
2018-08-17T09:03:21.969Z,94.80
2018-08-17T09:05:50.615Z,96.30
2018-08-17T09:08:22.804Z,97.20
2018-08-17T09:10:52.234Z,97.50
2018-08-17T09:13:20.345Z,96.20
2018-08-17T09:15:50.495Z,96.00
2018-08-17T09:18:18.681Z,95.20
2018-08-17T09:20:46.835Z,94.80
2018-08-17T09:23:15.521Z,93.10
2018-08-17T09:25:43.621Z,92.20
2018-08-17T09:28:13.686Z,91.20
2018-08-17T09:30:42.771Z,92.30
2018-08-17T09:33:11.764Z,92.10
2018-08-17T09:35:39.802Z,93.30
2018-08-17T09:38:07.781Z,95.00
2018-08-17T09:40:35.672Z,95.70
2018-08-17T09:43:11.112Z,95.50
2018-08-17T09:45:40.041Z,95.70
2018-08-17T09:48:09.729Z,96.50
2018-08-17T09:50:38.535Z,96.60
2018-08-17T09:53:06.712Z,96.30
2018-08-17T09:55:36.427Z,96.40
2018-08-17T09:58:04.502Z,97.20
2018-08-17T10:02:41.904Z,97.10
2018-08-17T10:05:16.485Z,97.50
2018-08-17T10:07:51.380Z,97.30
2018-08-17T10:10:21.142Z,97.30
2018-08-17T10:12:51.219Z,97.20
2018-08-17T10:15:19.487Z,97.20
2018-08-17T10:17:48.609Z,97.60
2018-08-17T10:20:18.688Z,97.60
2018-08-17T10:22:47.688Z,97.60
2018-08-17T10:25:20.338Z,97.10
2018-08-17T10:27:58.492Z,97.00
2018-08-17T10:30:26.601Z,97.10
2018-08-17T10:32:55.953Z,97.70
2018-08-17T10:35:25.467Z,97.50
2018-08-17T10:37:55.880Z,97.00
2018-08-17T10:40:24.479Z,97.20
2018-08-17T10:42:54.384Z,97.70
2018-08-17T10:45:25.600Z,97.50
2018-08-17T10:47:55.553Z,97.60
2018-08-17T10:50:27.006Z,96.90
2018-08-17T10:52:58.000Z,96.60
2018-08-17T10:55:38.626Z,96.90
2018-08-17T10:58:09.378Z,97.10
2018-08-17T11:00:38.406Z,97.00
2018-08-17T11:03:06.772Z,97.20
2018-08-17T11:05:35.652Z,97.30
2018-08-17T11:08:03.722Z,96.90
2018-08-17T11:10:31.731Z,96.30
2018-08-17T11:13:00.670Z,97.10
2018-08-17T11:15:30.776Z,97.50
2018-08-17T11:18:01.319Z,97.00
2018-08-17T11:20:29.388Z,97.00
2018-08-17T11:22:57.509Z,96.50
2018-08-17T11:25:27.666Z,96.10
2018-08-17T11:27:56.343Z,96.00
2018-08-17T11:30:24.488Z,95.70
2018-08-17T11:32:53.144Z,95.70
2018-08-17T11:35:21.171Z,95.30
2018-08-17T11:37:51.189Z,95.30
2018-08-17T11:40:20.331Z,95.50
2018-08-17T11:42:51.220Z,95.10
2018-08-17T11:45:25.762Z,95.40
2018-08-17T11:47:56.308Z,95.40
2018-08-17T11:50:26.677Z,95.00
2018-08-17T11:52:58.184Z,95.00
2018-08-17T11:55:29.077Z,94.90
2018-08-17T11:58:01.173Z,94.70
2018-08-17T12:00:36.742Z,94.30
2018-08-17T12:03:07.614Z,94.10
2018-08-17T12:05:35.755Z,94.00
2018-08-17T12:08:04.001Z,94.10
2018-08-17T12:10:34.244Z,94.20
2018-08-17T12:13:09.060Z,94.20
2018-08-17T12:15:43.553Z,94.00
2018-08-17T12:18:11.756Z,94.20
2018-08-17T12:20:40.389Z,94.40
2018-08-17T12:23:15.799Z,94.40
2018-08-17T12:25:50.815Z,94.30
2018-08-17T12:28:34.520Z,94.20
2018-08-17T12:31:05.354Z,94.10
2018-08-17T12:33:34.089Z,94.00
2018-08-17T12:36:02.145Z,93.90
2018-08-17T12:38:30.920Z,93.50
2018-08-17T12:40:59.242Z,93.50
2018-08-17T12:43:30.828Z,93.40
2018-08-17T12:46:00.085Z,93.50
2018-08-17T12:48:28.440Z,93.20
2018-08-17T12:51:02.021Z,93.00
2018-08-17T12:53:31.958Z,92.90
2018-08-17T12:56:00.656Z,93.00
2018-08-17T12:58:28.721Z,93.10
2018-08-17T13:00:56.821Z,92.60
2018-08-17T13:03:25.790Z,92.20
2018-08-17T13:05:53.807Z,92.30
2018-08-17T13:08:21.755Z,91.90
2018-08-17T13:10:50.915Z,91.40
2018-08-17T13:13:21.570Z,91.30
2018-08-17T13:15:55.159Z,90.90
2018-08-17T13:18:24.542Z,91.20
2018-08-17T13:21:07.943Z,90.40
2018-08-17T13:23:36.158Z,90.30
2018-08-17T13:26:04.364Z,89.90
2018-08-17T13:28:32.386Z,88.40
2018-08-17T13:31:01.166Z,88.50
2018-08-17T13:33:30.043Z,88.00
2018-08-17T13:35:59.114Z,88.30
2018-08-17T13:38:27.136Z,90.00
2018-08-17T13:40:55.185Z,90.50
2018-08-17T13:43:23.225Z,90.20
2018-08-17T13:45:51.345Z,90.00
2018-08-17T13:48:19.392Z,89.60
2018-08-17T13:50:47.407Z,88.70
2018-08-17T13:53:15.493Z,88.50
2018-08-17T13:55:45.761Z,88.20
2018-08-17T13:58:13.717Z,87.50
2018-08-17T14:00:45.400Z,87.30
2018-08-17T14:03:13.474Z,87.10
2018-08-17T14:05:42.384Z,87.70
2018-08-17T14:08:11.339Z,87.20
2018-08-17T14:10:39.533Z,86.60
2018-08-17T14:13:07.583Z,87.10
2018-08-17T14:15:35.627Z,87.10
2018-08-17T14:18:05.488Z,87.00
2018-08-17T14:20:34.385Z,87.10
2018-08-17T14:23:04.219Z,86.40
2018-08-17T14:25:34.796Z,86.50
2018-08-17T14:28:02.906Z,85.50
2018-08-17T14:30:33.788Z,85.60
2018-08-17T14:33:02.805Z,85.80
2018-08-17T14:35:30.868Z,86.30
2018-08-17T14:38:08.549Z,86.20
2018-08-17T14:40:37.601Z,86.40
2018-08-17T14:43:08.037Z,87.10
2018-08-17T14:45:37.000Z,86.80
2018-08-17T14:48:05.390Z,86.80
2018-08-17T14:50:33.413Z,87.10
2018-08-17T14:53:01.760Z,86.60
2018-08-17T14:55:29.773Z,86.70
2018-08-17T14:57:57.833Z,87.50
2018-08-17T15:00:25.995Z,87.20
2018-08-17T15:02:55.602Z,86.70
2018-08-17T15:05:23.905Z,87.00
2018-08-17T15:07:51.962Z,87.50
2018-08-17T15:10:21.524Z,87.50
2018-08-17T15:12:49.719Z,86.90
2018-08-17T15:15:18.561Z,86.50
2018-08-17T15:17:47.412Z,87.50
2018-08-17T15:20:16.196Z,88.30
2018-08-17T15:22:45.114Z,88.90
2018-08-17T15:25:21.481Z,88.50
2018-08-17T15:27:49.637Z,88.00
2018-08-17T15:30:19.909Z,88.20
2018-08-17T15:32:48.996Z,88.40
2018-08-17T15:35:18.703Z,88.90
2018-08-17T15:37:47.201Z,89.10
2018-08-17T15:40:16.479Z,88.70
2018-08-17T15:42:45.468Z,88.30
2018-08-17T15:45:18.947Z,88.70
2018-08-17T15:47:47.717Z,88.30
2018-08-17T15:50:20.019Z,88.80
2018-08-17T15:52:50.555Z,88.60
2018-08-17T15:55:30.322Z,88.80
2018-08-17T15:57:58.688Z,88.50
2018-08-17T16:00:28.402Z,88.40
2018-08-17T16:02:57.280Z,88.50
2018-08-17T16:05:31.000Z,88.90
2018-08-17T16:08:00.847Z,88.50
2018-08-17T16:10:29.509Z,88.50
2018-08-17T16:12:58.445Z,88.60
2018-08-17T16:15:27.972Z,88.30
2018-08-17T16:17:58.776Z,88.50
2018-08-17T16:20:28.724Z,88.90
2018-08-17T16:22:58.304Z,88.40
2018-08-17T16:25:26.826Z,88.60
2018-08-17T16:27:56.617Z,88.60
2018-08-17T16:30:27.420Z,89.00
2018-08-17T16:32:55.923Z,89.20
2018-08-17T16:35:25.329Z,89.20
2018-08-17T16:37:54.813Z,89.20
2018-08-17T16:40:23.070Z,89.50
2018-08-17T16:42:52.466Z,89.40
2018-08-17T16:45:20.643Z,89.70
2018-08-17T16:52:36.125Z,90.00
2018-08-17T16:57:48.442Z,90.70
2018-08-17T17:00:17.310Z,90.70
2018-08-17T17:02:48.572Z,90.80
2018-08-17T17:05:40.556Z,90.80
2018-08-17T17:08:10.844Z,90.70
2018-08-17T17:10:40.623Z,90.80
2018-08-17T17:13:09.142Z,90.80
2018-08-17T17:15:39.558Z,90.90
2018-08-17T17:18:11.801Z,90.90
2018-08-17T17:20:41.606Z,91.00
2018-08-17T17:23:11.761Z,91.20
2018-08-17T17:25:40.931Z,91.40
2018-08-17T17:28:23.977Z,91.60
2018-08-17T17:30:53.357Z,91.70
2018-08-17T17:33:34.832Z,92.00
2018-08-17T17:36:06.771Z,92.00
2018-08-17T17:38:37.755Z,92.10
2018-08-17T17:41:09.399Z,92.00
2018-08-17T17:43:38.077Z,92.20
2018-08-17T17:46:09.715Z,92.60
2018-08-17T17:48:40.763Z,92.50
2018-08-17T17:51:11.398Z,92.70
2018-08-17T17:54:01.579Z,93.10
2018-08-17T17:56:52.832Z,93.50
2018-08-17T17:59:21.724Z,93.80
2018-08-17T18:01:52.445Z,94.10
2018-08-17T18:04:35.994Z,94.30
2018-08-17T18:07:11.400Z,94.40
2018-08-17T18:09:40.819Z,94.80
2018-08-17T18:12:15.692Z,94.90
2018-08-17T18:15:11.511Z,95.20
2018-08-17T18:17:43.086Z,95.60
2018-08-17T18:20:15.669Z,96.00
2018-08-17T18:22:55.251Z,96.50
2018-08-17T18:25:24.056Z,96.90
2018-08-17T18:30:44.167Z,97.60
2018-08-17T18:33:12.434Z,98.10
2018-08-17T18:35:41.678Z,98.60
2018-08-17T18:38:16.021Z,99.10
2018-08-17T18:41:12.802Z,99.50
2018-08-17T18:44:05.365Z,99.80
2018-08-17T18:46:37.623Z,99.90
2018-08-17T18:49:30.026Z,99.90
2018-08-17T18:52:28.148Z,99.90
2018-08-17T18:54:58.109Z,99.90
2018-08-17T18:57:26.446Z,99.90
2018-08-17T18:59:57.370Z,99.90
2018-08-17T19:02:26.930Z,99.90
2018-08-17T19:04:56.568Z,99.90
2018-08-17T19:07:45.013Z,99.90
2018-08-17T19:11:03.740Z,99.90
2018-08-17T19:13:33.253Z,99.90
2018-08-17T19:16:04.378Z,99.90
2018-08-17T19:18:36.528Z,99.90
2018-08-17T19:21:25.201Z,99.90
2018-08-17T19:24:15.428Z,99.90
2018-08-17T19:26:47.556Z,99.90
2018-08-17T19:29:25.373Z,99.90
2018-08-17T19:32:00.516Z,99.90
2018-08-17T19:34:31.653Z,99.90
2018-08-17T19:37:03.848Z,99.90
2018-08-17T19:39:33.376Z,99.90
2018-08-17T19:42:03.811Z,99.90
2018-08-17T19:44:33.816Z,99.90
2018-08-17T19:47:11.982Z,99.90
2018-08-17T19:49:40.239Z,99.90
2018-08-17T19:52:08.242Z,99.90
2018-08-17T19:54:45.758Z,99.90
2018-08-17T19:57:55.851Z,99.90
2018-08-17T20:00:25.525Z,99.90
2018-08-17T20:02:54.012Z,99.90
2018-08-17T20:08:02.844Z,99.90
2018-08-17T20:13:32.344Z,99.90
2018-08-17T20:16:14.028Z,99.90
2018-08-17T20:23:04.590Z,99.90
2018-08-17T20:25:48.317Z,99.90
2018-08-17T20:28:31.725Z,99.90
2018-08-17T20:31:00.514Z,99.90
2018-08-17T20:33:30.073Z,99.90
2018-08-17T20:36:27.998Z,99.90
2018-08-17T20:38:59.256Z,99.90
2018-08-17T20:46:16.815Z,99.90
2018-08-17T20:48:50.462Z,99.90
2018-08-17T20:51:26.100Z,99.90
2018-08-17T20:53:59.992Z,99.90
2018-08-17T20:56:31.178Z,99.90
2018-08-17T20:59:23.213Z,99.90
2018-08-17T21:04:55.640Z,99.90
2018-08-17T21:07:48.753Z,99.90
2018-08-17T21:10:17.764Z,99.90
2018-08-17T21:12:53.734Z,99.90
2018-08-17T21:15:23.717Z,99.90
2018-08-17T21:18:01.517Z,99.90
2018-08-17T21:20:37.265Z,99.90
2018-08-17T21:23:09.255Z,99.90
2018-08-17T21:25:39.834Z,99.90
2018-08-17T21:28:13.886Z,99.90
2018-08-17T21:30:43.793Z,99.90
2018-08-17T21:33:17.715Z,99.90
2018-08-17T21:35:50.433Z,99.90
2018-08-17T21:38:26.872Z,99.90
2018-08-17T21:40:56.655Z,99.90
2018-08-17T21:43:26.296Z,99.90
2018-08-17T21:46:09.211Z,99.90
2018-08-17T21:48:41.248Z,99.90
2018-08-17T21:51:10.059Z,99.90
2018-08-17T21:53:44.319Z,99.90
2018-08-17T21:56:25.630Z,99.90
2018-08-17T21:59:04.089Z,99.90
2018-08-17T22:01:33.244Z,99.90
2018-08-17T22:04:04.492Z,99.90
2018-08-17T22:06:35.399Z,99.90
2018-08-17T22:09:20.091Z,99.90
2018-08-17T22:11:49.572Z,99.90
2018-08-17T22:14:23.028Z,99.90
2018-08-17T22:16:58.615Z,99.90
2018-08-17T22:19:45.295Z,99.90
2018-08-17T22:22:24.823Z,99.90
2018-08-17T22:25:03.093Z,99.90
2018-08-17T22:27:34.406Z,99.90
2018-08-17T22:30:06.757Z,99.90
2018-08-17T22:32:35.588Z,99.90
2018-08-17T22:35:04.588Z,99.90
2018-08-17T22:37:44.086Z,99.90
2018-08-17T22:40:13.208Z,99.90
2018-08-17T22:42:42.117Z,99.90
2018-08-17T22:45:10.934Z,99.90
2018-08-17T22:47:41.531Z,99.90
2018-08-17T22:50:23.756Z,99.90
2018-08-17T22:52:52.112Z,99.90
2018-08-17T22:55:29.162Z,99.90
2018-08-17T22:57:59.080Z,99.90
2018-08-17T23:00:29.711Z,99.90
2018-08-17T23:03:03.589Z,99.90
2018-08-17T23:05:40.837Z,99.90
2018-08-17T23:08:37.285Z,99.90
2018-08-17T23:11:40.369Z,99.90
2018-08-17T23:14:15.133Z,99.90
2018-08-17T23:16:44.554Z,99.90
2018-08-17T23:19:13.328Z,99.90
2018-08-17T23:21:43.781Z,99.90
2018-08-17T23:24:13.660Z,99.90
2018-08-17T23:26:41.867Z,99.90
2018-08-17T23:29:10.331Z,99.90
2018-08-17T23:31:38.973Z,99.90
2018-08-17T23:34:07.523Z,99.90
2018-08-17T23:36:36.881Z,99.90
2018-08-17T23:39:10.050Z,99.90
2018-08-17T23:41:41.327Z,99.90
2018-08-17T23:44:10.008Z,99.90
2018-08-17T23:46:43.320Z,99.90
2018-08-17T23:49:31.270Z,99.90
2018-08-17T23:52:24.323Z,99.90
2018-08-17T23:54:54.692Z,99.90
2018-08-17T23:57:23.211Z,99.90
2018-08-17T23:59:53.403Z,99.90
